Time;durP1;ratioP1;P1;durP2;ratioP2;P2;SDS_P1;SDS_P2;PMS_P1;PMS_P2;Temp;Humidity;BMP_temperature;BMP_pressure;BME280_temperature;BME280_humidity;BME280_pressure;Samples;Min_cycle;Max_cycle;Signal;HPM_P1;HPM_P2
2022/09/28 00:00:15;;;;;;;0.77;0.60;;;6.80;99.90;;;;;;5072819;28;20385;-83
2022/09/28 00:02:41;;;;;;;0.50;0.50;;;7.10;99.90;;;;;;5084039;28;20051;-83
2022/09/28 00:05:07;;;;;;;0.60;0.52;;;7.30;99.90;;;;;;5077680;28;20039;-83
2022/09/28 00:07:33;;;;;;;0.70;0.50;;;7.30;99.90;;;;;;5069741;28;20036;-83
2022/09/28 00:09:58;;;;;;;0.80;0.50;;;6.80;99.90;;;;;;5090120;28;20040;-83
2022/09/28 00:12:24;;;;;;;0.47;0.47;;;7.10;99.90;;;;;;5090119;28;20043;-83
2022/09/28 00:14:50;;;;;;;0.63;0.50;;;6.80;99.90;;;;;;5064048;28;20045;-83
2022/09/28 00:17:15;;;;;;;0.82;0.45;;;6.80;99.90;;;;;;5069810;28;20051;-84
2022/09/28 00:19:42;;;;;;;0.68;0.60;;;7.10;99.90;;;;;;5062445;28;20044;-82
2022/09/28 00:22:08;;;;;;;0.50;0.50;;;7.30;99.90;;;;;;5086159;28;20147;-81
2022/09/28 00:24:34;;;;;;;0.50;0.47;;;7.00;99.90;;;;;;5052880;28;20120;-81
2022/09/28 00:27:01;;;;;;;0.63;0.57;;;7.30;99.90;;;;;;5035811;28;20037;-82
2022/09/28 00:29:34;;;;;;;0.50;0.50;;;7.30;99.90;;;;;;5052706;28;20598;-81
2022/09/28 00:32:05;;;;;;;0.68;0.50;;;6.80;99.90;;;;;;5062693;28;20051;-82
2022/09/28 00:34:34;;;;;;;0.43;0.40;;;7.30;99.90;;;;;;5066517;28;20079;-81
2022/09/28 00:37:01;;;;;;;0.50;0.50;;;6.90;99.90;;;;;;5068898;28;20372;-81
2022/09/28 00:39:30;;;;;;;0.40;0.40;;;6.90;99.90;;;;;;5051894;28;20498;-81
2022/09/28 00:41:56;;;;;;;0.55;0.50;;;7.30;99.90;;;;;;5059402;28;20043;-81
2022/09/28 00:44:25;;;;;;;1.10;0.70;;;6.80;99.90;;;;;;5073011;28;20486;-81
2022/09/28 00:47:01;;;;;;;0.77;0.68;;;6.80;99.90;;;;;;5086728;28;20058;-81
2022/09/28 00:49:39;;;;;;;1.23;0.90;;;7.40;99.90;;;;;;5073626;28;20035;-81
2022/09/28 00:52:06;;;;;;;0.75;0.70;;;7.40;99.90;;;;;;5092178;28;20051;-81
2022/09/28 00:54:33;;;;;;;0.50;0.50;;;7.10;99.90;;;;;;5070918;28;20044;-81
2022/09/28 00:57:03;;;;;;;0.90;0.70;;;6.80;99.90;;;;;;5050633;28;20402;-83
2022/09/28 00:59:31;;;;;;;0.57;0.55;;;7.30;99.90;;;;;;5072403;28;20079;-82
2022/09/28 01:01:57;;;;;;;0.68;0.63;;;6.70;99.90;;;;;;5055867;28;20036;-82
2022/09/28 01:04:22;;;;;;;0.68;0.60;;;7.30;99.90;;;;;;5055211;28;20049;-81
2022/09/28 01:06:49;;;;;;;0.70;0.50;;;7.30;99.90;;;;;;5072472;28;20080;-81
2022/09/28 01:09:17;;;;;;;0.73;0.65;;;6.90;99.90;;;;;;5088398;28;20071;-81
2022/09/28 01:11:43;;;;;;;0.70;0.70;;;6.80;99.90;;;;;;5075816;28;20582;-81
2022/09/28 01:14:11;;;;;;;0.70;0.70;;;7.20;99.90;;;;;;5086569;28;20498;-83
2022/09/28 01:17:02;;;;;;;0.60;0.60;;;6.70;99.90;;;;;;5055774;28;20552;-82
2022/09/28 01:19:54;;;;;;;1.17;0.90;;;6.80;99.90;;;;;;5055586;28;20048;-82
2022/09/28 01:22:19;;;;;;;1.20;0.80;;;6.70;99.90;;;;;;5085118;28;20050;-82
2022/09/28 01:25:03;;;;;;;0.98;0.70;;;7.30;99.90;;;;;;5079759;28;20053;-82
2022/09/28 01:27:38;;;;;;;0.90;0.65;;;7.10;99.90;;;;;;5091677;28;20078;-82
2022/09/28 01:30:07;;;;;;;0.70;0.70;;;6.60;99.90;;;;;;5092325;28;20052;-82
2022/09/28 01:32:43;;;;;;;0.80;0.80;;;7.10;99.90;;;;;;5058261;28;20053;-83
2022/09/28 01:35:15;;;;;;;0.80;0.73;;;6.80;99.90;;;;;;5093027;28;20036;-82
2022/09/28 01:37:51;;;;;;;0.70;0.70;;;6.90;99.90;;;;;;5072350;28;20301;-82
2022/09/28 01:40:20;;;;;;;0.60;0.60;;;6.40;99.90;;;;;;5067834;28;20038;-82
2022/09/28 01:42:49;;;;;;;0.98;0.88;;;6.30;99.90;;;;;;5054827;28;20136;-82
2022/09/28 01:45:31;;;;;;;0.60;0.60;;;6.50;99.90;;;;;;5070940;28;20094;-82
2022/09/28 01:48:01;;;;;;;0.88;0.77;;;6.40;99.90;;;;;;5080288;28;20043;-83
2022/09/28 01:50:29;;;;;;;0.80;0.80;;;6.70;99.90;;;;;;5060797;28;20032;-82
2022/09/28 01:53:02;;;;;;;1.00;0.70;;;6.30;99.90;;;;;;5059199;28;20044;-83
2022/09/28 01:55:37;;;;;;;0.77;0.77;;;6.10;99.90;;;;;;5076838;28;20048;-83
2022/09/28 01:58:13;;;;;;;0.80;0.80;;;6.10;99.90;;;;;;5065382;28;20055;-83
2022/09/28 02:00:43;;;;;;;0.80;0.80;;;6.10;99.90;;;;;;5074954;28;20105;-82
2022/09/28 02:03:15;;;;;;;1.08;0.98;;;6.20;99.90;;;;;;5081006;28;20044;-82
2022/09/28 02:05:55;;;;;;;0.88;0.60;;;6.20;99.90;;;;;;5064563;28;20063;-83
2022/09/28 02:08:42;;;;;;;0.57;0.57;;;6.10;99.90;;;;;;5091906;28;20044;-82
2022/09/28 02:11:14;;;;;;;0.70;0.40;;;6.60;99.90;;;;;;5091091;28;20113;-82
2022/09/28 02:14:00;;;;;;;0.63;0.60;;;6.40;99.90;;;;;;5074396;28;20040;-82
2022/09/28 02:16:46;;;;;;;0.77;0.70;;;6.20;99.90;;;;;;5074596;28;20391;-82
2022/09/28 02:19:22;;;;;;;0.73;0.70;;;6.70;99.90;;;;;;5074420;28;20471;-82
2022/09/28 02:22:03;;;;;;;0.73;0.65;;;6.20;99.90;;;;;;5090453;28;20036;-82
2022/09/28 02:24:44;;;;;;;0.60;0.60;;;6.70;99.90;;;;;;5072664;28;20044;-82
2022/09/28 02:27:20;;;;;;;0.80;0.63;;;6.30;99.90;;;;;;5071212;28;20435;-82
2022/09/28 02:29:47;;;;;;;0.50;0.50;;;6.60;99.90;;;;;;5053616;28;20504;-82
2022/09/28 02:32:18;;;;;;;0.70;0.70;;;6.40;99.90;;;;;;5087797;28;20044;-82
2022/09/28 02:34:44;;;;;;;0.85;0.70;;;6.50;99.90;;;;;;5085698;28;20058;-82
2022/09/28 02:37:10;;;;;;;0.77;0.70;;;6.90;99.90;;;;;;5072934;28;20125;-82
2022/09/28 02:39:36;;;;;;;1.10;1.00;;;6.40;99.90;;;;;;5069147;28;20089;-81
2022/09/28 02:42:10;;;;;;;0.70;0.70;;;6.60;99.90;;;;;;5069939;28;20090;-81
2022/09/28 02:44:57;;;;;;;0.90;0.75;;;7.10;99.90;;;;;;5069078;28;20128;-81
2022/09/28 02:47:48;;;;;;;1.30;0.93;;;6.90;99.90;;;;;;5067077;28;20514;-81
2022/09/28 02:50:50;;;;;;;0.98;0.82;;;6.50;99.90;;;;;;5087052;28;20044;-82
2022/09/28 02:53:37;;;;;;;1.00;0.90;;;6.80;99.90;;;;;;5069810;28;20519;-82
2022/09/28 02:56:05;;;;;;;1.10;1.00;;;7.10;99.90;;;;;;5077027;28;20036;-82
2022/09/28 02:58:56;;;;;;;1.00;0.90;;;7.10;99.90;;;;;;5064184;28;20063;-82
2022/09/28 03:01:32;;;;;;;1.67;1.30;;;6.90;99.90;;;;;;5082088;28;20055;-82
2022/09/28 03:04:22;;;;;;;1.48;1.30;;;6.80;99.90;;;;;;5065468;28;20040;-82
2022/09/28 03:07:13;;;;;;;1.40;1.20;;;6.80;99.90;;;;;;5081508;28;20044;-81
2022/09/28 03:09:47;;;;;;;1.42;1.20;;;7.20;99.90;;;;;;5090405;28;20040;-82
2022/09/28 03:12:17;;;;;;;1.60;1.30;;;6.70;99.90;;;;;;5073506;28;20048;-82
2022/09/28 03:14:44;;;;;;;1.08;0.98;;;6.60;99.90;;;;;;5071381;28;20059;-82
2022/09/28 03:17:09;;;;;;;1.10;0.93;;;6.60;99.90;;;;;;5070119;28;20036;-81
2022/09/28 03:19:35;;;;;;;1.00;0.90;;;6.60;99.90;;;;;;5086324;28;20109;-82
2022/09/28 03:22:01;;;;;;;;;;;7.20;99.90;;;;;;5057404;28;20453;-82
2022/09/28 03:24:27;;;;;;;1.15;1.05;;;6.70;99.90;;;;;;5074061;28;20276;-82
2022/09/28 03:26:53;;;;;;;0.95;0.90;;;6.50;99.90;;;;;;5089155;28;20040;-82
2022/09/28 03:29:21;;;;;;;1.15;1.05;;;7.10;99.90;;;;;;5056799;28;20490;-81
2022/09/28 03:31:47;;;;;;;1.00;0.90;;;7.20;99.90;;;;;;5038257;28;20039;-82
2022/09/28 03:34:16;;;;;;;1.10;1.00;;;6.50;99.90;;;;;;5052438;28;20084;-82
2022/09/28 03:36:41;;;;;;;1.17;1.08;;;6.60;99.90;;;;;;5088039;28;20077;-82
2022/09/28 03:39:08;;;;;;;1.13;1.02;;;6.50;99.90;;;;;;5073621;28;20048;-82
2022/09/28 03:41:33;;;;;;;1.15;1.05;;;7.00;99.90;;;;;;5076950;28;20477;-82
2022/09/28 03:44:02;;;;;;;1.08;0.98;;;6.30;99.90;;;;;;5074411;28;20076;-82
2022/09/28 03:46:28;;;;;;;0.82;0.82;;;6.40;99.90;;;;;;5076782;28;20065;-82
2022/09/28 03:48:57;;;;;;;1.05;0.95;;;6.40;99.90;;;;;;5085883;28;20040;-82
2022/09/28 03:51:22;;;;;;;1.05;0.95;;;6.50;99.90;;;;;;5048984;28;20040;-82
2022/09/28 03:53:48;;;;;;;0.97;0.90;;;6.80;99.90;;;;;;5083290;28;20491;-82
2022/09/28 03:56:14;;;;;;;0.80;0.80;;;6.20;99.90;;;;;;5069038;28;20286;-82
2022/09/28 03:58:40;;;;;;;1.20;1.10;;;6.10;99.90;;;;;;5052965;28;20086;-81
2022/09/28 04:01:08;;;;;;;1.13;1.02;;;6.60;99.90;;;;;;5063114;28;20555;-82
2022/09/28 04:03:34;;;;;;;1.00;0.90;;;6.10;99.90;;;;;;5073282;28;20056;-82
2022/09/28 04:06:02;;;;;;;1.10;1.00;;;5.90;99.90;;;;;;5056680;28;20080;-82
2022/09/28 04:08:28;;;;;;;1.10;1.00;;;6.00;99.90;;;;;;5084404;28;20068;-82
2022/09/28 04:10:58;;;;;;;0.95;0.90;;;6.40;99.90;;;;;;5072077;28;20047;-76
2022/09/28 04:13:26;;;;;;;1.33;1.20;;;5.90;99.90;;;;;;5077282;28;20040;-76
2022/09/28 04:15:53;;;;;;;1.23;1.13;;;5.90;99.90;;;;;;5060791;28;20051;-75
2022/09/28 04:18:19;;;;;;;1.40;1.17;;;6.40;99.90;;;;;;5062378;28;20036;-75
2022/09/28 04:20:46;;;;;;;1.35;1.17;;;6.00;99.90;;;;;;5058131;28;20514;-75
2022/09/28 04:23:14;;;;;;;1.38;1.20;;;6.30;99.90;;;;;;5080131;28;20044;-75
2022/09/28 04:25:39;;;;;;;1.00;0.90;;;5.90;99.90;;;;;;5053876;28;20062;-75
2022/09/28 04:30:49;;;;;;;1.30;1.20;;;5.70;99.90;;;;;;5070766;28;20101;-75
2022/09/28 04:33:15;;;;;;;1.67;1.20;;;5.90;99.90;;;;;;5078497;28;20047;-76
2022/09/28 04:35:40;;;;;;;1.42;1.15;;;5.70;99.90;;;;;;5065008;28;20036;-76
2022/09/28 04:38:06;;;;;;;1.30;1.20;;;5.70;99.90;;;;;;5068829;28;20113;-76
2022/09/28 04:40:32;;;;;;;0.90;0.90;;;5.70;99.90;;;;;;5054012;28;20114;-76
2022/09/28 04:42:58;;;;;;;0.98;0.88;;;5.60;99.90;;;;;;5079846;28;20093;-78
2022/09/28 04:45:25;;;;;;;0.80;0.70;;;5.80;99.90;;;;;;5067020;28;20439;-78
2022/09/28 04:47:51;;;;;;;1.00;0.90;;;6.00;99.90;;;;;;5065678;28;20072;-77
2022/09/28 04:50:17;;;;;;;1.00;0.90;;;5.80;99.90;;;;;;5064718;28;20066;-76
2022/09/28 04:52:43;;;;;;;1.10;0.93;;;5.60;99.90;;;;;;5070979;28;20427;-77
2022/09/28 04:55:13;;;;;;;1.10;1.00;;;5.70;99.90;;;;;;5055573;28;20479;-77
2022/09/28 04:57:39;;;;;;;1.95;0.90;;;6.10;99.90;;;;;;5052320;28;20068;-77
2022/09/28 05:00:05;;;;;;;1.02;0.90;;;5.70;99.90;;;;;;5067588;28;20135;-77
2022/09/28 05:02:31;;;;;;;0.85;0.80;;;6.10;99.90;;;;;;5071556;28;20580;-77
2022/09/28 05:04:57;;;;;;;1.10;0.95;;;5.60;99.90;;;;;;5068984;28;20036;-77
2022/09/28 05:07:25;;;;;;;1.30;1.17;;;6.20;99.90;;;;;;5070996;28;20101;-78
2022/09/28 05:09:50;;;;;;;1.08;0.98;;;6.20;99.90;;;;;;5069290;28;20139;-77
2022/09/28 05:12:16;;;;;;;1.17;1.08;;;6.30;99.90;;;;;;5077148;28;20131;-76
2022/09/28 05:14:42;;;;;;;0.77;0.77;;;5.80;99.90;;;;;;5068184;28;20076;-78
2022/09/28 05:17:09;;;;;;;0.75;0.75;;;6.20;99.90;;;;;;5071766;28;20046;-78
2022/09/28 05:19:34;;;;;;;0.88;0.80;;;5.80;99.90;;;;;;5076830;28;20148;-78
2022/09/28 05:22:05;;;;;;;0.90;0.80;;;6.10;99.90;;;;;;5071677;28;20495;-78
2022/09/28 05:24:33;;;;;;;1.48;1.00;;;5.70;99.90;;;;;;5068956;28;20544;-77
2022/09/28 05:26:59;;;;;;;0.80;0.80;;;6.20;99.90;;;;;;5072696;28;20504;-75
2022/09/28 05:29:25;;;;;;;1.17;1.05;;;6.20;99.90;;;;;;5080349;28;20040;-76
2022/09/28 05:31:50;;;;;;;1.20;1.00;;;6.30;99.90;;;;;;5076856;28;20500;-76
2022/09/28 05:34:16;;;;;;;1.15;0.95;;;6.20;99.90;;;;;;5064752;28;20032;-82
2022/09/28 05:36:44;;;;;;;1.58;1.30;;;5.70;99.90;;;;;;5083182;28;20377;-76
2022/09/28 05:39:10;;;;;;;1.50;1.10;;;5.80;99.90;;;;;;5058954;28;20067;-76
2022/09/28 05:41:36;;;;;;;1.27;1.10;;;6.00;99.90;;;;;;5070005;28;20048;-76
2022/09/28 05:44:02;;;;;;;1.40;1.15;;;6.40;99.90;;;;;;5040247;28;20044;-76
2022/09/28 05:46:27;;;;;;;1.40;1.27;;;6.20;99.90;;;;;;5055655;28;20052;-77
2022/09/28 05:48:53;;;;;;;1.63;1.17;;;5.80;99.90;;;;;;5073366;28;20044;-76
2022/09/28 05:51:19;;;;;;;1.63;1.27;;;5.80;99.90;;;;;;5066119;28;20142;-76
2022/09/28 05:53:45;;;;;;;;;;;5.90;99.90;;;;;;5078975;28;20105;-76
2022/09/28 05:56:11;;;;;;;1.73;1.50;;;6.40;99.90;;;;;;5067628;28;20015;-76
2022/09/28 05:58:36;;;;;;;1.85;1.65;;;6.10;99.90;;;;;;5086930;28;20052;-75
2022/09/28 06:01:02;;;;;;;2.00;1.60;;;5.90;99.90;;;;;;5045132;28;20074;-76
2022/09/28 06:03:28;;;;;;;2.08;1.58;;;6.20;99.90;;;;;;5075136;28;20087;-76
2022/09/28 06:05:54;;;;;;;1.60;1.33;;;6.00;99.90;;;;;;5066569;28;20047;-76
2022/09/28 06:08:20;;;;;;;1.15;1.02;;;5.90;99.90;;;;;;5080596;28;20044;-76
2022/09/28 06:10:45;;;;;;;1.85;1.50;;;6.50;99.90;;;;;;5070756;28;20056;-76
2022/09/28 06:13:11;;;;;;;2.03;1.40;;;6.00;99.90;;;;;;5063212;28;20028;-76
2022/09/28 06:15:38;;;;;;;1.33;1.05;;;6.60;99.90;;;;;;5070371;28;20134;-76
2022/09/28 06:18:04;;;;;;;;;;;6.20;99.90;;;;;;5071437;28;20387;-76
2022/09/28 06:20:33;;;;;;;1.48;1.23;;;6.70;99.90;;;;;;5070953;28;19983;-76
2022/09/28 06:22:59;;;;;;;1.67;1.10;;;6.60;99.90;;;;;;5062236;28;20127;-76
2022/09/28 06:25:26;;;;;;;1.48;1.30;;;6.50;99.90;;;;;;5090853;28;20146;-76
2022/09/28 06:27:57;;;;;;;1.60;1.27;;;6.80;99.90;;;;;;5068608;28;20533;-76
2022/09/28 06:30:25;;;;;;;1.90;1.42;;;6.50;99.90;;;;;;5054575;28;20149;-76
2022/09/28 06:32:56;;;;;;;1.80;1.50;;;6.70;99.90;;;;;;5070508;28;20519;-76
2022/09/28 06:35:24;;;;;;;1.70;1.50;;;6.80;99.90;;;;;;5054262;28;20149;-76
2022/09/28 06:37:51;;;;;;;2.40;1.90;;;6.80;99.90;;;;;;5053829;28;20082;-76
2022/09/28 06:40:16;;;;;;;1.95;1.60;;;6.30;99.90;;;;;;5054201;28;20556;-76
2022/09/28 06:42:42;;;;;;;2.28;1.80;;;6.70;99.90;;;;;;5070389;28;20128;-76
2022/09/28 06:45:09;;;;;;;1.75;1.50;;;6.40;99.90;;;;;;5070620;28;20040;-76
2022/09/28 06:47:36;;;;;;;1.63;1.30;;;6.70;99.90;;;;;;5070896;28;20081;-76
2022/09/28 06:50:09;;;;;;;1.67;1.50;;;6.40;99.90;;;;;;5070550;28;20102;-75
2022/09/28 06:52:35;;;;;;;1.52;1.40;;;6.50;99.90;;;;;;5054862;28;20122;-75
2022/09/28 06:55:05;;;;;;;1.88;1.60;;;6.50;99.90;;;;;;5070215;28;20052;-74
2022/09/28 06:57:39;;;;;;;1.90;1.70;;;6.60;99.90;;;;;;5053667;28;20407;-74
2022/09/28 07:00:06;;;;;;;2.13;1.80;;;6.50;99.90;;;;;;5053428;28;20052;-74
2022/09/28 07:02:31;;;;;;;2.20;1.70;;;6.50;99.90;;;;;;5070019;28;20127;-74
2022/09/28 07:04:57;;;;;;;1.80;1.42;;;6.60;99.90;;;;;;5070448;28;20132;-74
2022/09/28 07:07:23;;;;;;;1.90;1.50;;;6.70;99.90;;;;;;5070383;28;20078;-74
2022/09/28 07:09:53;;;;;;;2.63;2.13;;;6.80;99.90;;;;;;5053223;28;20131;-74
2022/09/28 07:12:20;;;;;;;2.67;2.10;;;6.80;99.90;;;;;;5055739;28;20044;-74
2022/09/28 07:14:48;;;;;;;2.10;1.80;;;7.40;99.90;;;;;;5090208;28;20048;-74
2022/09/28 07:17:13;;;;;;;2.53;2.03;;;7.50;99.90;;;;;;5090138;28;20048;-74
2022/09/28 07:19:39;;;;;;;2.10;1.67;;;7.40;99.90;;;;;;5090363;28;20126;-74
2022/09/28 07:22:05;;;;;;;2.13;1.85;;;7.30;99.90;;;;;;5089996;28;20502;-74
2022/09/28 07:24:30;;;;;;;2.30;1.98;;;7.60;99.90;;;;;;5089991;28;20119;-74
2022/09/28 07:26:56;;;;;;;1.90;1.67;;;7.80;99.90;;;;;;5072901;28;20083;-74
2022/09/28 07:29:22;;;;;;;2.63;2.28;;;7.40;99.90;;;;;;5072802;28;20051;-74
2022/09/28 07:31:47;;;;;;;2.08;1.70;;;7.90;99.90;;;;;;5090042;28;20048;-74
2022/09/28 07:34:17;;;;;;;1.77;1.63;;;7.30;99.90;;;;;;5073352;28;20050;-74
2022/09/28 07:36:42;;;;;;;1.60;1.50;;;8.20;99.90;;;;;;5072783;28;20093;-74
2022/09/28 07:39:10;;;;;;;2.17;1.83;;;7.70;99.90;;;;;;5089703;28;20043;-74
2022/09/28 07:41:38;;;;;;;2.00;1.75;;;8.10;99.90;;;;;;5073180;28;20063;-74
2022/09/28 07:44:06;;;;;;;2.50;1.90;;;7.80;99.90;;;;;;5089779;28;20482;-75
2022/09/28 07:46:38;;;;;;;2.28;1.77;;;8.70;99.90;;;;;;5090315;28;20089;-74
2022/09/28 07:49:04;;;;;;;1.95;1.52;;;8.10;99.90;;;;;;5072879;28;20036;-74
2022/09/28 07:51:31;;;;;;;1.95;1.75;;;8.30;99.90;;;;;;5089680;28;20131;-74
2022/09/28 07:53:57;;;;;;;2.30;2.00;;;9.00;99.90;;;;;;5091242;28;20610;-74
2022/09/28 07:56:24;;;;;;;2.90;2.42;;;9.00;99.90;;;;;;5089580;28;20213;-74
2022/09/28 07:58:49;;;;;;;2.33;2.08;;;9.00;99.90;;;;;;5089835;28;20391;-74
2022/09/28 08:01:16;;;;;;;2.30;2.00;;;8.50;99.90;;;;;;5089971;28;20051;-74
2022/09/28 08:03:46;;;;;;;2.65;2.17;;;8.80;99.90;;;;;;5089827;28;20048;-75
2022/09/28 08:06:15;;;;;;;2.20;1.92;;;9.40;99.90;;;;;;5056592;28;20044;-74
2022/09/28 08:08:43;;;;;;;2.67;1.77;;;9.70;99.90;;;;;;5089340;28;20044;-74
2022/09/28 08:11:14;;;;;;;2.15;1.50;;;9.50;99.90;;;;;;5089249;28;20040;-75
2022/09/28 08:13:40;;;;;;;1.98;1.77;;;9.20;99.90;;;;;;5089097;28;20499;-74
2022/09/28 08:16:07;;;;;;;2.13;1.92;;;9.70;99.90;;;;;;5089205;28;20115;-74
2022/09/28 08:18:34;;;;;;;3.17;2.38;;;9.90;99.90;;;;;;5088841;28;20051;-74
2022/09/28 08:23:45;;;;;;;2.17;1.73;;;10.10;99.90;;;;;;5089515;28;20040;-74
2022/09/28 08:26:11;;;;;;;1.90;1.40;;;10.20;99.90;;;;;;5088995;28;20476;-74
2022/09/28 08:28:38;;;;;;;2.00;1.70;;;10.30;99.90;;;;;;5089082;28;20075;-75
2022/09/28 08:31:06;;;;;;;;;;;9.90;99.90;;;;;;5089745;28;20501;-75
2022/09/28 08:33:33;;;;;;;2.53;1.90;;;10.00;99.90;;;;;;5088850;28;19926;-75
2022/09/28 08:36:00;;;;;;;2.30;1.90;;;10.50;99.90;;;;;;5072329;28;20503;-75
2022/09/28 08:38:30;;;;;;;1.95;1.60;;;9.90;99.90;;;;;;5072347;28;20498;-74
2022/09/28 08:41:12;;;;;;;1.75;1.40;;;10.60;99.90;;;;;;5088966;28;20047;-74
2022/09/28 08:43:38;;;;;;;1.83;1.40;;;10.30;99.90;;;;;;5088825;28;20123;-75
2022/09/28 08:46:05;;;;;;;1.67;1.20;;;10.50;99.90;;;;;;5071981;28;20126;-74
2022/09/28 08:48:47;;;;;;;2.00;1.40;;;10.60;99.90;;;;;;5088521;28;20096;-75
2022/09/28 08:51:25;;;;;;;1.92;1.40;;;11.00;99.90;;;;;;5088908;28;20040;-74
2022/09/28 08:54:04;;;;;;;1.75;1.60;;;10.90;99.90;;;;;;5088752;28;20124;-74
2022/09/28 08:56:46;;;;;;;1.80;1.60;;;10.90;99.90;;;;;;5089086;28;20047;-74
2022/09/28 08:59:16;;;;;;;1.90;1.60;;;10.90;99.90;;;;;;5088700;28;20109;-74
2022/09/28 09:01:49;;;;;;;1.77;1.40;;;10.90;99.90;;;;;;5091036;28;20090;-74
2022/09/28 09:04:15;;;;;;;1.45;1.23;;;10.50;99.90;;;;;;5075580;28;20403;-75
2022/09/28 09:06:40;;;;;;;;;;;11.00;99.90;;;;;;5076355;28;20044;-75
2022/09/28 09:09:30;;;;;;;1.50;1.20;;;10.90;99.90;;;;;;5092431;28;20363;-75
2022/09/28 09:12:07;;;;;;;1.77;1.30;;;11.00;99.90;;;;;;5076252;28;20055;-75
2022/09/28 09:15:10;;;;;;;1.17;1.00;;;11.40;99.90;;;;;;5092400;28;20076;-75
2022/09/28 09:17:38;;;;;;;1.70;1.27;;;11.50;99.90;;;;;;5092046;28;20039;-75
2022/09/28 09:20:32;;;;;;;1.40;1.25;;;11.40;99.90;;;;;;5092781;28;20434;-75
2022/09/28 09:22:59;;;;;;;2.00;1.50;;;11.50;99.90;;;;;;5092256;28;20048;-75
2022/09/28 09:25:40;;;;;;;2.17;1.58;;;11.50;99.90;;;;;;5092139;28;20120;-74
2022/09/28 09:28:12;;;;;;;2.42;1.40;;;11.80;99.90;;;;;;5092318;28;20081;-75
2022/09/28 09:30:47;;;;;;;1.33;1.00;;;11.60;99.90;;;;;;5092333;28;20042;-77
2022/09/28 09:33:15;;;;;;;1.40;1.30;;;11.70;99.90;;;;;;5092310;28;20044;-74
2022/09/28 09:36:10;;;;;;;1.48;0.95;;;11.70;99.90;;;;;;5092009;28;20110;-75
2022/09/28 09:39:02;;;;;;;1.20;1.10;;;11.80;99.90;;;;;;5092361;28;20040;-76
2022/09/28 09:41:57;;;;;;;1.00;0.90;;;11.70;99.90;;;;;;5075020;28;20143;-75
2022/09/28 09:44:44;;;;;;;1.00;0.90;;;11.60;99.90;;;;;;5092109;28;20512;-75
2022/09/28 09:47:38;;;;;;;0.88;0.70;;;11.70;99.90;;;;;;5091818;28;20123;-75
2022/09/28 09:50:32;;;;;;;0.50;0.50;;;11.70;99.90;;;;;;5091918;28;20040;-75
2022/09/28 09:53:15;;;;;;;1.90;1.10;;;11.70;99.90;;;;;;5091639;28;20044;-76
2022/09/28 09:55:49;;;;;;;1.45;1.10;;;11.70;99.90;;;;;;5091755;28;20048;-76
2022/09/28 09:58:32;;;;;;;1.23;0.88;;;11.70;99.90;;;;;;5091497;28;20067;-74
2022/09/28 10:01:07;;;;;;;0.90;0.68;;;11.80;99.90;;;;;;5092138;28;20399;-74
2022/09/28 10:03:37;;;;;;;0.60;0.57;;;12.10;99.90;;;;;;5091782;28;20040;-75
2022/09/28 10:06:15;;;;;;;0.47;0.35;;;12.10;99.90;;;;;;5091508;28;20122;-75
2022/09/28 10:08:46;;;;;;;0.70;0.50;;;12.30;99.90;;;;;;5091433;28;20071;-75
2022/09/28 10:11:27;;;;;;;0.40;0.20;;;12.60;99.90;;;;;;5091670;28;20116;-75
2022/09/28 10:13:54;;;;;;;0.20;0.20;;;12.90;99.90;;;;;;5090686;28;20045;-75
2022/09/28 10:16:19;;;;;;;0.80;0.40;;;13.10;99.90;;;;;;5091789;28;20028;-75
2022/09/28 10:18:48;;;;;;;1.15;0.65;;;13.20;99.90;;;;;;5091633;28;20047;-80
2022/09/28 10:21:16;;;;;;;1.17;0.50;;;13.40;99.90;;;;;;5091205;28;20198;-80
2022/09/28 10:23:43;;;;;;;0.40;0.38;;;13.20;99.90;;;;;;5091179;28;20488;-80
2022/09/28 10:26:14;;;;;;;0.30;0.30;;;13.30;99.90;;;;;;5074621;28;20111;-80
2022/09/28 10:28:48;;;;;;;0.30;0.20;;;13.10;99.90;;;;;;5074177;28;20055;-80
2022/09/28 10:31:33;;;;;;;0.55;0.25;;;13.10;99.90;;;;;;5074392;28;20040;-79
2022/09/28 10:33:58;;;;;;;0.20;0.20;;;12.90;99.90;;;;;;5073935;28;20090;-79
2022/09/28 10:36:25;;;;;;;0.10;0.10;;;12.80;99.90;;;;;;5091168;28;20075;-79
2022/09/28 10:38:52;;;;;;;0.20;0.20;;;12.70;99.90;;;;;;5090935;28;20044;-79
2022/09/28 10:41:18;;;;;;;0.20;0.20;;;12.70;99.90;;;;;;5074559;28;20047;-79
2022/09/28 10:44:05;;;;;;;0.40;0.28;;;12.70;99.90;;;;;;5090980;28;20044;-80
2022/09/28 10:46:33;;;;;;;0.40;0.32;;;12.60;99.90;;;;;;5091142;28;20059;-79
2022/09/28 10:49:04;;;;;;;0.30;0.22;;;13.10;99.90;;;;;;5090495;28;20055;-80
2022/09/28 10:51:45;;;;;;;0.30;0.22;;;13.60;99.90;;;;;;5090610;28;20051;-80
2022/09/28 10:54:16;;;;;;;0.10;0.10;;;14.00;99.90;;;;;;5090743;28;20039;-80
2022/09/28 10:56:43;;;;;;;0.20;0.10;;;14.60;99.90;;;;;;5090491;28;20064;-80
2022/09/28 10:59:45;;;;;;;0.20;0.20;;;15.00;99.90;;;;;;5090405;28;20510;-80
2022/09/28 11:02:28;;;;;;;0.47;0.22;;;15.20;99.90;;;;;;5057900;28;20540;-79
2022/09/28 11:04:57;;;;;;;0.40;0.20;;;15.20;99.90;;;;;;5090282;28;20043;-79
2022/09/28 11:07:26;;;;;;;0.20;0.20;;;15.40;99.90;;;;;;5073408;28;20054;-80
2022/09/28 11:09:54;;;;;;;0.30;0.28;;;15.20;99.90;;;;;;5090224;28;20100;-79
2022/09/28 11:12:25;;;;;;;0.22;0.22;;;15.00;99.90;;;;;;5090320;28;20036;-74
2022/09/28 11:15:03;;;;;;;1.17;0.40;;;14.90;99.90;;;;;;5090021;28;20434;-74
2022/09/28 11:17:38;;;;;;;0.32;0.20;;;15.00;99.90;;;;;;5090267;28;20036;-79
2022/09/28 11:20:26;;;;;;;0.63;0.20;;;15.50;99.90;;;;;;5090067;28;20104;-79
2022/09/28 11:22:57;;;;;;;0.43;0.10;;;15.90;99.90;;;;;;5089906;28;20533;-79
2022/09/28 11:25:25;;;;;;;0.40;0.10;;;16.20;99.90;;;;;;5089192;28;20043;-79
2022/09/28 11:27:51;;;;;;;0.10;0.10;;;16.70;99.90;;;;;;5090330;28;20040;-80
2022/09/28 11:30:28;;;;;;;0.20;0.20;;;16.70;99.90;;;;;;5090065;28;20544;-80
2022/09/28 11:33:00;;;;;;;0.10;0.10;;;16.50;99.90;;;;;;5089831;28;20127;-75
2022/09/28 11:35:46;;;;;;;0.13;0.10;;;16.20;99.90;;;;;;5090002;28;20502;-75
2022/09/28 11:38:34;;;;;;;0.50;0.20;;;15.80;99.90;;;;;;5090037;28;20040;-76
2022/09/28 11:41:13;;;;;;;;;;;15.20;99.90;;;;;;5073468;28;20127;-76
2022/09/28 11:43:45;;;;;;;0.17;0.10;;;14.80;99.90;;;;;;5089819;28;19924;-77
2022/09/28 11:46:28;;;;;;;0.73;0.20;;;14.50;99.90;;;;;;5089724;28;20040;-77
2022/09/28 11:49:02;;;;;;;0.75;0.30;;;14.10;99.90;;;;;;5089423;28;20047;-77
2022/09/28 11:51:33;;;;;;;0.47;0.20;;;13.80;99.90;;;;;;5072813;28;20079;-76
2022/09/28 11:54:13;;;;;;;0.85;0.40;;;13.70;99.90;;;;;;5089676;28;20079;-76
2022/09/28 11:56:46;;;;;;;1.20;0.60;;;13.40;99.90;;;;;;5072802;28;20048;-77
2022/09/28 11:59:32;;;;;;;1.20;0.45;;;13.30;99.90;;;;;;5089771;28;20130;-76
2022/09/28 12:02:09;;;;;;;0.98;0.40;;;13.30;99.90;;;;;;5089480;28;20056;-76
2022/09/28 12:04:41;;;;;;;;;;;13.30;99.90;;;;;;5089711;28;20035;-81
2022/09/28 12:07:34;;;;;;;0.85;0.35;;;13.40;99.90;;;;;;5089263;28;19927;-80
2022/09/28 12:10:17;;;;;;;0.82;0.30;;;13.80;99.90;;;;;;5089680;28;20105;-81
2022/09/28 12:12:58;;;;;;;0.20;0.20;;;14.10;99.90;;;;;;5072308;28;20055;-81
2022/09/28 12:15:59;;;;;;;0.10;0.10;;;14.40;99.90;;;;;;5072525;28;20040;-79
2022/09/28 12:18:40;;;;;;;0.32;0.30;;;14.40;99.90;;;;;;5072510;28;20180;-80
2022/09/28 12:21:23;;;;;;;0.70;0.30;;;14.60;99.90;;;;;;5091335;28;20052;-80
2022/09/28 12:24:01;;;;;;;0.73;0.40;;;14.80;99.90;;;;;;5089536;28;20036;-80
2022/09/28 12:26:57;;;;;;;0.22;0.20;;;14.60;99.90;;;;;;5090341;28;20043;-80
2022/09/28 12:29:32;;;;;;;0.60;0.20;;;14.30;99.90;;;;;;5090865;28;20047;-78
2022/09/28 12:32:34;;;;;;;0.30;0.10;;;14.10;99.90;;;;;;5090512;28;20123;-75
2022/09/28 12:35:02;;;;;;;0.40;0.20;;;13.90;99.90;;;;;;5060725;28;20059;-74
2022/09/28 12:37:43;;;;;;;1.90;0.40;;;13.80;99.90;;;;;;5085116;28;20060;-76
2022/09/28 12:40:27;;;;;;;0.70;0.30;;;13.40;99.90;;;;;;5088730;28;20047;-74
2022/09/28 12:43:00;;;;;;;0.60;0.20;;;13.10;99.90;;;;;;5074046;28;20109;-76
2022/09/28 12:45:52;;;;;;;0.20;0.20;;;12.90;99.90;;;;;;5073273;28;20033;-74
2022/09/28 12:48:38;;;;;;;0.05;0.05;;;12.70;99.90;;;;;;5079027;28;20097;-73
2022/09/28 12:51:20;;;;;;;0.32;0.10;;;12.60;99.90;;;;;;5071933;28;20618;-73
2022/09/28 12:54:09;;;;;;;0.10;0.10;;;12.50;99.90;;;;;;5088020;28;20075;-76
2022/09/28 12:57:25;;;;;;;0.00;0.00;;;12.50;99.90;;;;;;5085099;28;20036;-81
2022/09/28 13:00:00;;;;;;;0.20;0.03;;;12.30;99.90;;;;;;5088454;28;20048;-82
2022/09/28 13:03:14;;;;;;;0.20;0.08;;;12.10;99.90;;;;;;5078045;28;20123;-83
2022/09/28 13:06:04;;;;;;;0.10;0.10;;;12.10;99.90;;;;;;5065701;28;20055;-81
2022/09/28 13:08:32;;;;;;;0.10;0.00;;;12.00;99.90;;;;;;5074945;28;20037;-82
2022/09/28 13:11:22;;;;;;;0.20;0.20;;;12.10;99.90;;;;;;5073237;28;20041;-81
2022/09/28 13:14:17;;;;;;;0.00;0.00;;;12.10;99.90;;;;;;5071014;28;20047;-80
2022/09/28 13:17:02;;;;;;;0.00;0.00;;;12.20;99.90;;;;;;5065380;28;20056;-82
2022/09/28 13:20:14;;;;;;;0.00;0.00;;;12.20;99.90;;;;;;5077239;28;20043;-83
2022/09/28 13:22:49;;;;;;;0.00;0.00;;;12.30;99.90;;;;;;5084295;28;20072;-81
2022/09/28 13:25:19;;;;;;;0.00;0.00;;;12.30;99.90;;;;;;5076807;28;20047;-84
2022/09/28 13:28:05;;;;;;;0.13;0.00;;;12.40;99.90;;;;;;5070199;28;20036;-80